New Canada, Maine
Current Conditions -  °F | °C
As of 11:20 AM on Sunday 25 Jan 2015 (Local Time) from KFVE Reporting Station
Overcast Overcast  
Wind Chill: -7°   Ceiling: 2900
Heat Index: 10°   Visibility: 10mi
Dew Point:   Wind: 16mph
Humidity: 64%   Direction: 300°WNW
Pressure: 29.23"   Gusts: NA
Location:  47.0224°N, 68.6923°W
Report Text: KFVE 251620Z AUTO 30014KT 10SM OVC029 M12/M18 A2923 RMK AO2 UPB1554E1555 P0000 T11221178
Loading
Personal Weather Stations






























Interactive Weather Map New forecast layout! Learn more

10-Day Weather Forecast

Advertisements
Track Severe Weather on mobile